KCNW

Tstc Waco Airport

Waco, Texas, USA
METAR KCNW 170155Z 11005KT 4SM RA SCT006 OVC013 07/06 A3005
Observed Flight Rules
Dec-17 @ 01:55 UTC (34 minutes ago) Marginal Visual Flight Rules
Wind Visibility Clouds Conditions
110° at 5 knots 4 miles
  • Scattered at 600' AGL
  • Overcast at 1,300' AGL
  • Rain
Temperatures Readings
Current 7°C / 45°F
Dewpoint 6°C / 43°F
Humidity 93%
Altimeter 30.05" Hg
Pressure 1018 hPa
Elevation 156
METAR KCNW 170155Z 11005KT 4SM RA SCT006 OVC013 07/06 A3005
Observed Flight Rules
Dec-17 @ 01:55 UTC
(34 minutes ago)
MVFR
Wind Visibility
110° at 5 knots 4 miles
Clouds
  • Scattered at 600' AGL
  • Overcast at 1,300' AGL
Conditions
  • Rain
Temperature Dewpoint
7°C / 45°F 6°C / 43°F
Humidity Altimeter Pressure
93% 30.05" Hg 1018 hPa